Time;durP1;ratioP1;P1;durP2;ratioP2;P2;SDS_P1;SDS_P2;PMS_P1;PMS_P2;Temp;Humidity;BMP_temperature;BMP_pressure;BME280_temperature;BME280_humidity;BME280_pressure;Samples;Min_cycle;Max_cycle;Signal;HPM_P1;HPM_P2
2022/06/27 05:01:53;;;;;;;5.38;1.70;;;17.60;99.90;;;;;;5686834;23;20052;-79
2022/06/27 05:04:21;;;;;;;4.88;1.92;;;17.60;99.90;;;;;;4924093;29;20035;-80
2022/06/27 05:06:48;;;;;;;5.40;1.50;;;17.70;99.90;;;;;;4911834;29;20028;-80
2022/06/27 05:09:15;;;;;;;3.10;1.05;;;17.80;99.90;;;;;;4911818;29;20321;-81
2022/06/27 05:11:41;;;;;;;4.28;1.05;;;17.70;99.90;;;;;;4947736;29;20031;-80
2022/06/27 05:14:08;;;;;;;3.17;1.17;;;17.90;99.90;;;;;;4930752;29;20027;-79
2022/06/27 05:16:42;;;;;;;3.53;0.80;;;18.20;99.90;;;;;;4930429;29;20044;-80
2022/06/27 05:19:09;;;;;;;5.50;1.20;;;18.00;99.90;;;;;;4930335;29;20044;-78
2022/06/27 05:21:36;;;;;;;2.00;0.90;;;18.10;99.90;;;;;;4930692;29;20038;-79
2022/06/27 05:24:03;;;;;;;1.73;0.60;;;18.30;99.90;;;;;;4930370;29;20108;-78
2022/06/27 05:26:29;;;;;;;1.88;0.80;;;18.40;99.90;;;;;;4930948;29;20035;-79
2022/06/27 05:28:55;;;;;;;4.53;0.95;;;18.10;99.90;;;;;;4914783;29;20032;-79
2022/06/27 05:31:27;;;;;;;3.13;0.90;;;18.30;99.90;;;;;;4930515;29;20111;-77
2022/06/27 05:33:54;;;;;;;3.72;1.00;;;18.40;99.90;;;;;;4930969;29;20058;-79
2022/06/27 05:36:21;;;;;;;3.53;1.20;;;18.40;99.90;;;;;;4948382;29;20413;-79
2022/06/27 05:38:48;;;;;;;2.95;1.10;;;18.30;99.90;;;;;;4930857;29;20199;-79
2022/06/27 05:41:14;;;;;;;1.77;0.75;;;18.10;99.90;;;;;;4930290;29;20032;-78
2022/06/27 05:43:40;;;;;;;2.60;1.20;;;18.20;99.90;;;;;;4940648;29;20027;-78
2022/06/27 05:46:06;;;;;;;3.65;1.13;;;18.10;99.90;;;;;;4933717;29;20273;-79
2022/06/27 05:49:01;;;;;;;3.35;0.95;;;18.10;99.90;;;;;;4930315;29;20103;-78
2022/06/27 05:51:31;;;;;;;6.43;1.15;;;18.00;99.90;;;;;;4930799;29;20357;-78
2022/06/27 05:53:58;;;;;;;3.17;0.98;;;18.20;99.90;;;;;;4914447;29;20034;-78
2022/06/27 05:56:26;;;;;;;3.25;1.00;;;18.50;99.90;;;;;;4914868;29;20027;-79
2022/06/27 05:58:55;;;;;;;3.65;1.10;;;18.70;99.90;;;;;;4914486;29;20079;-79
2022/06/27 06:01:25;;;;;;;2.60;1.27;;;18.70;99.90;;;;;;4900892;29;20239;-79
2022/06/27 06:03:52;;;;;;;3.40;1.30;;;19.00;99.90;;;;;;4929716;29;20082;-79
2022/06/27 06:06:18;;;;;;;4.47;1.35;;;18.90;99.90;;;;;;4937209;29;20034;-78
2022/06/27 06:08:45;;;;;;;2.97;1.40;;;18.80;99.90;;;;;;4948353;29;20023;-79
2022/06/27 06:11:13;;;;;;;6.13;1.20;;;18.80;99.90;;;;;;4943569;29;20023;-80
2022/06/27 06:13:39;;;;;;;3.63;1.10;;;18.70;99.90;;;;;;4938738;29;20439;-78
2022/06/27 06:16:06;;;;;;;2.15;0.88;;;18.70;99.90;;;;;;4938080;29;20035;-79
2022/06/27 06:18:34;;;;;;;2.75;0.85;;;18.90;99.90;;;;;;4913494;29;20110;-78
2022/06/27 06:21:00;;;;;;;4.53;1.00;;;18.80;99.90;;;;;;4929261;29;20035;-79
2022/06/27 06:23:27;;;;;;;2.35;0.70;;;18.60;99.90;;;;;;4947709;29;20062;-79
2022/06/27 06:25:54;;;;;;;4.13;0.80;;;18.40;99.90;;;;;;4947793;29;20034;-79
2022/06/27 06:28:20;;;;;;;3.30;1.00;;;18.50;99.90;;;;;;4961548;29;20274;-80
2022/06/27 06:30:47;;;;;;;4.50;1.38;;;18.70;99.90;;;;;;4936829;29;20394;-78
2022/06/27 06:33:13;;;;;;;3.17;0.80;;;18.90;99.90;;;;;;4923098;29;20031;-78
2022/06/27 06:35:39;;;;;;;2.78;0.80;;;19.10;99.90;;;;;;4937408;29;20302;-79
2022/06/27 06:38:06;;;;;;;3.25;1.00;;;19.40;99.90;;;;;;4938354;29;20058;-79
2022/06/27 06:40:32;;;;;;;3.58;0.73;;;19.70;99.90;;;;;;4939297;29;20106;-79
2022/06/27 06:43:01;;;;;;;2.22;0.80;;;19.70;99.90;;;;;;4942045;29;20098;-79
2022/06/27 06:45:30;;;;;;;3.85;0.75;;;19.70;99.90;;;;;;4964053;28;20058;-80
2022/06/27 06:48:05;;;;;;;1.63;0.60;;;19.70;99.90;;;;;;4946790;29;20328;-79
2022/06/27 06:50:32;;;;;;;1.42;0.40;;;19.70;99.90;;;;;;4947045;29;20027;-79
2022/06/27 06:52:58;;;;;;;1.70;0.60;;;19.30;99.90;;;;;;4963398;28;20046;-79
2022/06/27 06:55:25;;;;;;;2.05;0.60;;;19.50;99.90;;;;;;4964289;29;20190;-79
2022/06/27 06:57:54;;;;;;;1.88;0.55;;;19.70;99.90;;;;;;4947289;29;20248;-80
2022/06/27 07:00:19;;;;;;;1.40;0.40;;;19.90;99.90;;;;;;4963548;28;20023;-80
2022/06/27 07:02:46;;;;;;;1.90;0.65;;;20.30;99.90;;;;;;4946690;29;20099;-80
2022/06/27 07:05:12;;;;;;;2.42;0.90;;;20.40;99.90;;;;;;4938798;29;20058;-79
2022/06/27 07:07:42;;;;;;;2.65;0.75;;;20.70;99.90;;;;;;4934710;29;20101;-77
2022/06/27 07:10:10;;;;;;;1.88;0.60;;;21.20;99.90;;;;;;4936629;29;20241;-78
2022/06/27 07:12:36;;;;;;;2.10;0.43;;;21.40;99.90;;;;;;4954877;29;20078;-79
2022/06/27 07:15:05;;;;;;;2.70;0.40;;;21.80;99.90;;;;;;4951254;28;20034;-80
2022/06/27 07:17:44;;;;;;;;;;;21.90;99.90;;;;;;4953819;29;20310;-78
2022/06/27 07:20:11;;;;;;;1.48;0.38;;;22.10;99.90;;;;;;4959040;29;19946;-79
2022/06/27 07:22:39;;;;;;;2.47;0.30;;;22.10;99.90;;;;;;4946253;29;20035;-79
2022/06/27 07:25:05;;;;;;;2.45;0.90;;;22.20;99.90;;;;;;4962955;29;20043;-78
2022/06/27 07:27:32;;;;;;;2.00;0.57;;;22.50;99.90;;;;;;4963678;29;20027;-79
2022/06/27 07:29:59;;;;;;;1.58;0.45;;;22.80;99.90;;;;;;4963242;29;20047;-78
2022/06/27 07:32:25;;;;;;;3.13;0.50;;;23.10;99.90;;;;;;4962671;28;20043;-77
2022/06/27 07:34:51;;;;;;;3.08;0.65;;;23.30;99.90;;;;;;4950781;29;20066;-78
2022/06/27 07:37:18;;;;;;;3.70;0.40;;;23.50;99.90;;;;;;4943849;29;20134;-78
2022/06/27 07:39:44;;;;;;;1.63;0.40;;;23.80;99.90;;;;;;4956091;29;20082;-78
2022/06/27 07:42:10;;;;;;;2.40;0.30;;;23.60;99.90;;;;;;4962733;29;20106;-77
2022/06/27 07:44:36;;;;;;;3.03;0.35;;;23.60;99.90;;;;;;4963153;29;20035;-77
2022/06/27 07:47:03;;;;;;;1.20;0.30;;;23.80;99.90;;;;;;4962592;29;20146;-75
2022/06/27 07:49:30;;;;;;;1.85;0.50;;;24.00;99.90;;;;;;4948157;29;20035;-77
2022/06/27 07:51:57;;;;;;;1.30;0.20;;;24.20;99.90;;;;;;4965051;29;20356;-79
2022/06/27 07:54:23;;;;;;;1.77;0.35;;;24.30;99.90;;;;;;4963377;29;20062;-78
2022/06/27 07:56:50;;;;;;;0.85;0.30;;;24.40;99.70;;;;;;4946341;29;20046;-78
2022/06/27 07:59:17;;;;;;;2.75;0.30;;;24.60;99.70;;;;;;4942448;29;20071;-80
2022/06/27 08:01:44;;;;;;;2.00;0.35;;;24.60;98.10;;;;;;4941678;29;20241;-78
2022/06/27 08:04:13;;;;;;;0.98;0.40;;;24.40;98.30;;;;;;4942913;29;20035;-78
2022/06/27 08:06:39;;;;;;;0.90;0.35;;;24.40;98.60;;;;;;4943957;29;20094;-77
2022/06/27 08:09:07;;;;;;;1.45;0.30;;;24.20;98.60;;;;;;4944592;29;20028;-78
2022/06/27 08:11:36;;;;;;;1.10;0.38;;;24.10;99.30;;;;;;4962696;29;20035;-77
2022/06/27 08:14:07;;;;;;;0.80;0.22;;;24.20;98.20;;;;;;4962896;29;20036;-80
2022/06/27 08:16:35;;;;;;;1.27;0.17;;;24.00;98.70;;;;;;4948398;29;20054;-78
2022/06/27 08:19:01;;;;;;;1.73;0.22;;;24.10;98.60;;;;;;4933636;29;20297;-80
2022/06/27 08:21:39;;;;;;;1.77;0.30;;;24.30;98.10;;;;;;4942766;29;20023;-80
2022/06/27 08:24:25;;;;;;;1.50;0.30;;;24.60;96.90;;;;;;4932222;29;20042;-79
2022/06/27 08:26:52;;;;;;;0.45;0.17;;;25.00;95.40;;;;;;4951445;29;20023;-79
2022/06/27 08:29:17;;;;;;;1.48;0.40;;;25.20;95.40;;;;;;4938963;29;20028;-80
2022/06/27 08:31:44;;;;;;;1.52;0.30;;;25.50;94.80;;;;;;4914359;29;20329;-81
2022/06/27 08:34:12;;;;;;;1.20;0.30;;;25.80;93.80;;;;;;4943049;29;20044;-80
2022/06/27 08:36:39;;;;;;;0.80;0.28;;;25.70;94.00;;;;;;4947282;29;20054;-80
2022/06/27 08:39:07;;;;;;;1.50;0.30;;;25.60;94.20;;;;;;4959270;29;20289;-80
2022/06/27 08:41:34;;;;;;;1.20;0.20;;;25.70;93.80;;;;;;4945050;29;20063;-80
2022/06/27 08:44:04;;;;;;;0.70;0.25;;;25.60;94.20;;;;;;4925876;29;20056;-80
2022/06/27 08:46:30;;;;;;;2.03;0.30;;;25.70;94.00;;;;;;4939826;29;20051;-81
2022/06/27 08:48:57;;;;;;;1.08;0.30;;;25.90;93.50;;;;;;4945182;29;20031;-80
2022/06/27 08:51:23;;;;;;;1.67;0.30;;;26.00;93.40;;;;;;4961954;29;20090;-79
2022/06/27 08:53:54;;;;;;;0.63;0.20;;;26.20;93.10;;;;;;4945302;29;20095;-81
2022/06/27 08:56:22;;;;;;;1.35;0.35;;;26.00;93.40;;;;;;4944780;29;20253;-80
2022/06/27 08:58:48;;;;;;;1.35;0.25;;;26.00;93.30;;;;;;4962176;29;20066;-80
2022/06/27 09:01:19;;;;;;;0.75;0.22;;;25.80;93.50;;;;;;4961237;28;20055;-80
2022/06/27 09:04:06;;;;;;;1.95;0.70;;;25.60;93.50;;;;;;4945024;29;20035;-80
2022/06/27 09:06:42;;;;;;;2.45;0.70;;;25.50;94.60;;;;;;4962593;29;20106;-78
2022/06/27 09:09:08;;;;;;;1.10;0.28;;;25.40;94.20;;;;;;4961805;29;20023;-80
2022/06/27 09:11:41;;;;;;;2.33;0.28;;;25.30;94.50;;;;;;4962035;29;20031;-79
2022/06/27 09:14:30;;;;;;;1.33;0.40;;;25.00;94.80;;;;;;4961643;29;20027;-81
2022/06/27 09:16:58;;;;;;;1.05;0.30;;;24.90;95.10;;;;;;4963587;28;20039;-80
2022/06/27 09:19:48;;;;;;;1.05;0.30;;;24.80;95.50;;;;;;4948129;29;20031;-79
2022/06/27 09:22:16;;;;;;;2.28;0.60;;;24.80;96.00;;;;;;4965006;29;20106;-80
2022/06/27 09:24:57;;;;;;;0.88;0.30;;;24.90;95.90;;;;;;4965711;29;20043;-80
2022/06/27 09:30:31;;;;;;;1.38;0.30;;;25.10;95.60;;;;;;4964926;28;20337;-79
2022/06/27 09:32:59;;;;;;;2.58;0.40;;;25.30;95.60;;;;;;4948415;29;20098;-80
2022/06/27 09:35:34;;;;;;;1.08;0.40;;;25.30;95.20;;;;;;4964989;28;20094;-78
2022/06/27 09:38:03;;;;;;;1.92;0.45;;;25.10;95.40;;;;;;4963632;29;20237;-80
2022/06/27 09:40:32;;;;;;;1.77;0.40;;;25.20;95.50;;;;;;4965202;29;20031;-80
2022/06/27 09:42:59;;;;;;;2.88;0.60;;;25.20;95.90;;;;;;4948464;29;20039;-79
2022/06/27 09:45:27;;;;;;;1.98;0.60;;;25.40;96.00;;;;;;4964263;29;20051;-81
2022/06/27 09:48:01;;;;;;;3.00;0.60;;;25.70;95.50;;;;;;4965429;29;20316;-81
2022/06/27 09:50:33;;;;;;;1.83;0.60;;;26.00;95.10;;;;;;4965466;29;20047;-81
2022/06/27 09:53:01;;;;;;;1.42;0.60;;;26.20;94.60;;;;;;4965832;29;20359;-80
2022/06/27 09:55:27;;;;;;;2.03;0.50;;;26.60;94.00;;;;;;4965409;29;20043;-80
2022/06/27 09:57:53;;;;;;;3.38;0.50;;;26.70;93.50;;;;;;4965258;29;20431;-79
2022/06/27 10:00:20;;;;;;;1.13;0.50;;;26.50;93.10;;;;;;4964012;28;20023;-80
2022/06/27 10:02:47;;;;;;;2.05;0.50;;;26.40;93.10;;;;;;4939480;29;20051;-79
2022/06/27 10:05:19;;;;;;;1.63;0.68;;;26.50;93.70;;;;;;4945741;29;20330;-80
2022/06/27 10:08:00;;;;;;;1.88;0.65;;;26.50;93.30;;;;;;4928969;29;20083;-82
2022/06/27 10:10:53;;;;;;;3.30;0.40;;;26.90;93.10;;;;;;4957494;29;20326;-80
2022/06/27 10:13:19;;;;;;;0.95;0.45;;;27.30;92.10;;;;;;4945755;29;20059;-80
2022/06/27 10:15:49;;;;;;;1.40;0.50;;;27.60;91.20;;;;;;4935551;29;20375;-79
2022/06/27 10:18:15;;;;;;;2.38;0.50;;;27.30;91.70;;;;;;4945392;29;20046;-79
2022/06/27 10:20:47;;;;;;;2.53;0.90;;;27.00;92.00;;;;;;4946228;29;20082;-78
2022/06/27 10:23:13;;;;;;;1.75;0.80;;;26.40;92.30;;;;;;4957391;29;20216;-79
2022/06/27 10:25:46;;;;;;;3.38;0.70;;;26.00;93.20;;;;;;4965314;29;20062;-79
2022/06/27 10:28:12;;;;;;;2.97;1.00;;;25.70;93.50;;;;;;4939400;29;20055;-79
2022/06/27 10:30:57;;;;;;;1.95;0.85;;;25.40;93.70;;;;;;4963989;28;20039;-77
2022/06/27 10:33:25;;;;;;;4.60;1.00;;;25.10;94.30;;;;;;4946800;29;20035;-78
2022/06/27 10:35:54;;;;;;;;;;;24.70;94.70;;;;;;4948252;29;20027;-80
2022/06/27 10:38:47;;;;;;;1.85;1.00;;;24.50;95.10;;;;;;4963807;29;19977;-79
2022/06/27 10:41:19;;;;;;;2.20;1.23;;;24.50;95.10;;;;;;4923875;29;20046;-79
2022/06/27 10:43:45;;;;;;;2.60;1.10;;;24.50;95.20;;;;;;4964734;29;20046;-79
2022/06/27 10:46:11;;;;;;;5.07;1.58;;;24.50;95.30;;;;;;4956157;28;20043;-79
2022/06/27 10:48:41;;;;;;;1.60;0.73;;;24.50;95.30;;;;;;4945544;29;20094;-79
2022/06/27 10:51:28;;;;;;;1.88;1.00;;;24.80;94.40;;;;;;4945041;29;20042;-78
2022/06/27 10:54:05;;;;;;;2.53;1.10;;;24.80;94.20;;;;;;4928456;29;20039;-78
2022/06/27 10:56:37;;;;;;;3.03;1.10;;;24.60;94.10;;;;;;4945189;29;20042;-78
2022/06/27 10:59:05;;;;;;;2.47;1.20;;;24.30;94.30;;;;;;4928329;29;20325;-79
2022/06/27 11:01:32;;;;;;;2.90;1.10;;;24.40;94.80;;;;;;4911519;29;20071;-78
2022/06/27 11:03:59;;;;;;;2.15;1.02;;;24.50;94.80;;;;;;4945322;29;20050;-79
2022/06/27 11:06:25;;;;;;;2.22;0.80;;;24.60;94.70;;;;;;4944665;29;20039;-79
2022/06/27 11:08:53;;;;;;;3.47;0.90;;;24.70;94.00;;;;;;4928239;29;20031;-79
2022/06/27 11:11:27;;;;;;;2.93;1.13;;;24.70;93.30;;;;;;4963366;29;20019;-79
2022/06/27 11:13:58;;;;;;;3.22;0.85;;;24.80;93.10;;;;;;4964018;29;20427;-79
2022/06/27 11:16:26;;;;;;;2.45;1.00;;;24.70;93.20;;;;;;4962709;28;20112;-79
2022/06/27 11:18:54;;;;;;;2.92;1.00;;;24.70;93.40;;;;;;4963943;29;20174;-80
2022/06/27 11:21:22;;;;;;;2.05;1.02;;;24.60;93.80;;;;;;4963605;29;20078;-78
2022/06/27 11:23:56;;;;;;;3.20;1.23;;;24.40;93.80;;;;;;4946462;29;20027;-79
2022/06/27 11:26:26;;;;;;;1.80;1.15;;;24.30;94.30;;;;;;4963291;29;20094;-78
2022/06/27 11:34:47;;;;;;;3.58;1.15;;;24.00;94.50;;;;;;4912235;29;20189;-79
2022/06/27 11:37:15;;;;;;;1.77;0.98;;;24.10;94.50;;;;;;4944404;29;20266;-79
2022/06/27 11:39:42;;;;;;;1.92;1.08;;;24.10;94.40;;;;;;4956130;28;20025;-78
2022/06/27 11:42:12;;;;;;;3.88;1.10;;;24.10;94.40;;;;;;4963364;29;20050;-79
2022/06/27 11:44:58;;;;;;;2.85;1.00;;;24.00;94.70;;;;;;4964538;29;20078;-79
2022/06/27 11:47:27;;;;;;;1.80;1.10;;;23.80;95.00;;;;;;4961877;28;20062;-79
2022/06/27 11:50:06;;;;;;;3.15;1.13;;;23.70;95.60;;;;;;4946332;29;20031;-80
2022/06/27 11:52:53;;;;;;;5.00;1.40;;;23.70;95.60;;;;;;4930119;29;20128;-79
2022/06/27 11:55:27;;;;;;;4.53;0.90;;;23.50;95.50;;;;;;4962776;29;20043;-79
2022/06/27 11:58:00;;;;;;;3.03;1.13;;;23.40;95.70;;;;;;4946424;29;20061;-79
2022/06/27 12:00:33;;;;;;;3.15;1.20;;;23.20;95.70;;;;;;4962018;28;20054;-79
2022/06/27 12:02:58;;;;;;;2.90;1.25;;;23.10;96.00;;;;;;4962985;29;20039;-79
2022/06/27 12:05:25;;;;;;;2.88;1.30;;;23.10;96.20;;;;;;4946296;29;20035;-82
2022/06/27 12:08:04;;;;;;;1.98;1.15;;;23.20;96.20;;;;;;4946283;29;20225;-79
2022/06/27 12:13:39;;;;;;;2.78;1.20;;;23.20;96.20;;;;;;4946142;29;20035;-79
2022/06/27 12:16:16;;;;;;;2.30;1.15;;;23.20;95.70;;;;;;4962806;28;20039;-79
2022/06/27 12:18:51;;;;;;;2.22;1.00;;;23.10;95.10;;;;;;4929974;29;20321;-78
2022/06/27 12:21:18;;;;;;;2.00;1.20;;;23.00;95.10;;;;;;4962429;29;20329;-80
2022/06/27 12:23:44;;;;;;;2.25;1.13;;;22.90;95.30;;;;;;4929678;29;20106;-79
2022/06/27 12:26:10;;;;;;;2.42;1.20;;;22.80;95.40;;;;;;4945332;29;20089;-78
2022/06/27 12:28:36;;;;;;;2.28;1.02;;;22.90;95.50;;;;;;4958440;29;20026;-81
2022/06/27 12:31:02;;;;;;;2.90;1.10;;;22.80;95.30;;;;;;4942758;29;20055;-80
2022/06/27 12:33:28;;;;;;;2.85;1.20;;;22.60;95.40;;;;;;4963255;29;20312;-80
2022/06/27 12:35:54;;;;;;;1.50;0.90;;;22.50;95.70;;;;;;4946072;29;20034;-80
2022/06/27 12:38:20;;;;;;;1.73;0.93;;;22.30;96.10;;;;;;4945461;29;20050;-81
2022/06/27 12:40:46;;;;;;;2.53;1.20;;;22.30;96.10;;;;;;4947947;29;20023;-79
2022/06/27 12:43:12;;;;;;;3.22;1.52;;;22.20;96.60;;;;;;4964885;29;20056;-79
2022/06/27 12:45:38;;;;;;;3.15;1.50;;;22.30;96.60;;;;;;4963649;29;20097;-81
2022/06/27 12:48:06;;;;;;;2.90;1.73;;;22.30;96.60;;;;;;4963615;29;20043;-80
2022/06/27 12:50:32;;;;;;;3.37;1.47;;;22.40;96.70;;;;;;4944166;29;20019;-79
2022/06/27 12:52:57;;;;;;;2.45;1.33;;;22.40;96.60;;;;;;4955510;29;20487;-79
2022/06/27 12:55:23;;;;;;;2.13;1.30;;;22.40;96.30;;;;;;4939068;29;20026;-79
2022/06/27 12:57:49;;;;;;;3.70;1.35;;;22.30;96.30;;;;;;4957165;29;20032;-78
2022/06/27 13:00:15;;;;;;;3.90;1.40;;;22.30;96.40;;;;;;4937439;28;20086;-79
2022/06/27 13:02:41;;;;;;;1.88;1.08;;;22.20;96.50;;;;;;4937831;29;20047;-80
2022/06/27 13:05:07;;;;;;;2.83;1.42;;;22.30;96.70;;;;;;4924516;29;20071;-80
2022/06/27 13:07:33;;;;;;;1.90;1.30;;;22.20;96.80;;;;;;4947289;29;20456;-80
2022/06/27 13:09:59;;;;;;;2.38;1.17;;;22.20;96.90;;;;;;4934888;29;20035;-79
2022/06/27 13:12:25;;;;;;;2.55;1.13;;;22.20;96.80;;;;;;4958826;29;20320;-78
2022/06/27 13:14:50;;;;;;;2.53;1.10;;;22.30;96.60;;;;;;4949190;29;20031;-78
2022/06/27 13:17:16;;;;;;;3.45;1.38;;;22.20;96.70;;;;;;4965188;29;20050;-78
2022/06/27 13:19:42;;;;;;;3.50;1.30;;;22.20;96.80;;;;;;4948419;29;20044;-80
2022/06/27 13:22:08;;;;;;;2.95;1.00;;;22.10;96.90;;;;;;4947883;29;20038;-80
2022/06/27 13:24:33;;;;;;;2.47;0.75;;;22.20;96.80;;;;;;4949166;29;20101;-78
2022/06/27 13:26:59;;;;;;;2.03;1.25;;;22.20;96.20;;;;;;4965931;29;20027;-79
2022/06/27 13:29:25;;;;;;;1.90;0.70;;;22.20;95.90;;;;;;4965247;29;20068;-78
2022/06/27 13:31:54;;;;;;;2.13;0.68;;;22.30;95.60;;;;;;4965181;28;20070;-79
2022/06/27 13:34:21;;;;;;;2.08;1.10;;;22.30;95.40;;;;;;4948335;29;20043;-81
2022/06/27 13:36:47;;;;;;;1.60;0.80;;;22.40;94.90;;;;;;4932624;29;20039;-79
2022/06/27 13:39:13;;;;;;;3.40;0.80;;;22.50;95.10;;;;;;4964544;29;20023;-79
2022/06/27 13:41:40;;;;;;;2.72;0.80;;;22.60;94.30;;;;;;4948731;29;20039;-80
2022/06/27 13:44:06;;;;;;;1.60;0.70;;;22.70;94.70;;;;;;4965222;29;20229;-80
2022/06/27 13:46:31;;;;;;;1.70;0.68;;;22.80;94.10;;;;;;4941092;29;20325;-79
2022/06/27 13:48:57;;;;;;;1.92;0.73;;;22.90;94.00;;;;;;4927264;29;20023;-81
2022/06/27 13:51:23;;;;;;;1.77;0.70;;;22.90;93.90;;;;;;4955920;29;20206;-81
2022/06/27 13:53:49;;;;;;;1.55;0.70;;;22.90;93.90;;;;;;4956618;28;20039;-82
2022/06/27 13:56:15;;;;;;;1.55;0.80;;;23.00;93.80;;;;;;4938875;29;20303;-80
2022/06/27 13:58:42;;;;;;;2.15;0.80;;;23.10;93.90;;;;;;4905972;29;20059;-80
2022/06/27 14:01:08;;;;;;;2.25;0.80;;;23.00;94.00;;;;;;4920386;29;20330;-80
2022/06/27 14:03:34;;;;;;;1.48;0.75;;;23.00;94.30;;;;;;4938871;29;20313;-81
2022/06/27 14:07:36;;;;;;;1.42;0.75;;;22.80;94.50;;;;;;4954516;29;20252;-80
2022/06/27 14:08:45;;;;;;;2.70;1.00;;;22.70;94.70;;;;;;4938177;29;20055;-82
2022/06/27 14:11:11;;;;;;;2.03;0.90;;;22.60;94.90;;;;;;4943073;29;20027;-81
2022/06/27 14:13:37;;;;;;;1.65;0.77;;;22.60;95.00;;;;;;4954422;29;20313;-81
2022/06/27 14:16:03;;;;;;;1.60;0.90;;;22.60;94.90;;;;;;4953829;28;20097;-82
2022/06/27 14:18:29;;;;;;;2.63;1.00;;;22.60;95.10;;;;;;4955610;29;20031;-81
2022/06/27 14:20:55;;;;;;;2.83;1.25;;;22.50;95.50;;;;;;4937021;29;20186;-81
2022/06/27 14:23:21;;;;;;;2.55;0.93;;;22.60;95.80;;;;;;4919060;29;20062;-80
2022/06/27 14:25:48;;;;;;;1.77;0.80;;;22.80;95.70;;;;;;4913234;29;20063;-80
2022/06/27 14:28:14;;;;;;;2.05;0.90;;;22.90;95.60;;;;;;4927452;29;20035;-83
2022/06/27 14:30:46;;;;;;;2.13;0.90;;;22.90;95.30;;;;;;4936245;29;20054;-80
2022/06/27 14:33:15;;;;;;;2.50;1.17;;;22.90;95.20;;;;;;4927494;29;20058;-81
2022/06/27 14:35:46;;;;;;;1.73;0.90;;;22.90;95.20;;;;;;4945496;29;20023;-81
2022/06/27 14:38:12;;;;;;;1.85;0.95;;;22.90;95.20;;;;;;4944928;29;20026;-81
2022/06/27 14:40:39;;;;;;;1.60;0.80;;;23.10;94.90;;;;;;4947476;29;20054;-81
2022/06/27 14:43:06;;;;;;;2.17;0.80;;;23.20;94.60;;;;;;4931359;29;20090;-81
2022/06/27 14:45:32;;;;;;;2.05;0.70;;;23.40;94.20;;;;;;4963855;29;20325;-81
2022/06/27 14:47:59;;;;;;;2.55;0.70;;;23.50;93.90;;;;;;4964437;29;20032;-81
2022/06/27 14:50:26;;;;;;;3.33;1.00;;;23.40;94.20;;;;;;4931231;29;20046;-80
2022/06/27 14:52:54;;;;;;;1.75;1.00;;;23.30;94.30;;;;;;4919031;29;20046;-81
2022/06/27 14:55:20;;;;;;;3.00;1.00;;;23.50;94.10;;;;;;4927387;29;20031;-80
2022/06/27 14:58:00;;;;;;;1.70;0.60;;;24.30;93.10;;;;;;4944198;29;20032;-80
2022/06/27 15:00:46;;;;;;;2.00;0.80;;;25.60;91.50;;;;;;4927379;29;20031;-82
2022/06/27 15:03:12;;;;;;;3.10;0.80;;;25.90;90.60;;;;;;4943646;29;20066;-80
2022/06/27 15:05:38;;;;;;;2.22;0.90;;;25.70;90.80;;;;;;4944887;29;20043;-79
2022/06/27 15:08:04;;;;;;;3.08;1.13;;;25.10;91.60;;;;;;4943262;29;20031;-80
2022/06/27 15:13:21;;;;;;;2.33;0.93;;;24.80;92.40;;;;;;4927660;29;20199;-81
2022/06/27 15:15:47;;;;;;;3.25;0.90;;;25.80;92.90;;;;;;4943660;29;20318;-81
2022/06/27 15:18:13;;;;;;;3.75;0.80;;;26.20;91.70;;;;;;4943911;29;20030;-81
2022/06/27 15:20:39;;;;;;;1.80;1.10;;;26.10;92.10;;;;;;4944709;29;20027;-80
2022/06/27 15:23:05;;;;;;;2.22;0.82;;;25.60;92.50;;;;;;4943693;29;20324;-81
2022/06/27 15:25:30;;;;;;;2.20;0.90;;;25.00;92.60;;;;;;4942986;29;20353;-81
2022/06/27 15:27:56;;;;;;;2.20;0.85;;;24.90;93.10;;;;;;4944232;29;20043;-80
2022/06/27 15:30:22;;;;;;;2.17;1.00;;;25.20;92.50;;;;;;4943232;29;20047;-81
2022/06/27 15:32:48;;;;;;;2.05;1.15;;;25.20;92.40;;;;;;4941769;29;20055;-80
2022/06/27 15:35:13;;;;;;;1.88;0.93;;;24.80;92.70;;;;;;4963278;29;20185;-81
2022/06/27 15:37:39;;;;;;;3.55;1.20;;;24.50;93.30;;;;;;4946318;29;20027;-81
2022/06/27 15:40:06;;;;;;;1.65;1.00;;;24.10;93.60;;;;;;4946084;29;20209;-80
2022/06/27 15:42:33;;;;;;;3.63;1.25;;;23.90;94.20;;;;;;4930167;29;20103;-80
2022/06/27 15:44:58;;;;;;;2.00;1.20;;;23.70;94.70;;;;;;4946160;29;20027;-80
2022/06/27 15:47:25;;;;;;;2.63;1.10;;;23.50;95.00;;;;;;4945012;29;20050;-81
2022/06/27 15:49:54;;;;;;;2.15;1.15;;;23.10;95.60;;;;;;4946135;29;20034;-81
2022/06/27 15:52:20;;;;;;;;;;;23.10;95.70;;;;;;4963097;29;20078;-80
2022/06/27 15:54:46;;;;;;;1.92;1.13;;;23.10;96.20;;;;;;4945825;29;19910;-82
2022/06/27 15:57:11;;;;;;;2.80;1.35;;;22.90;96.30;;;;;;4943356;29;20027;-81
2022/06/27 15:59:37;;;;;;;2.65;1.63;;;22.80;97.10;;;;;;4943828;29;20336;-82
2022/06/27 16:02:06;;;;;;;2.53;1.40;;;22.60;97.70;;;;;;4938049;29;20040;-80
2022/06/27 16:04:33;;;;;;;2.05;1.20;;;22.60;99.00;;;;;;4924297;29;20044;-80
2022/06/27 16:06:59;;;;;;;2.25;1.38;;;22.60;98.10;;;;;;4924880;29;20028;-80
2022/06/27 16:09:25;;;;;;;3.00;1.52;;;22.50;98.80;;;;;;4911133;29;20306;-81
2022/06/27 16:11:51;;;;;;;2.63;1.33;;;22.50;99.20;;;;;;4943522;29;20091;-80
2022/06/27 16:14:17;;;;;;;3.85;1.40;;;22.40;99.70;;;;;;4925308;29;20027;-80
2022/06/27 16:16:43;;;;;;;2.08;1.38;;;22.40;99.80;;;;;;4923939;29;20051;-82
2022/06/27 16:19:09;;;;;;;2.20;1.40;;;22.40;99.20;;;;;;4908759;29;20352;-81
2022/06/27 16:21:35;;;;;;;3.55;1.33;;;22.50;99.90;;;;;;4908464;29;20039;-80
2022/06/27 16:24:01;;;;;;;3.10;1.40;;;22.50;99.10;;;;;;4891781;29;20336;-79
2022/06/27 16:26:27;;;;;;;3.03;1.30;;;22.80;99.40;;;;;;4925539;29;20042;-77
2022/06/27 16:28:53;;;;;;;2.42;1.10;;;23.20;98.10;;;;;;4926374;29;20035;-78
2022/06/27 16:34:03;;;;;;;2.00;1.17;;;23.90;97.10;;;;;;4928261;29;20334;-78
2022/06/27 16:36:29;;;;;;;2.80;1.33;;;23.80;96.90;;;;;;4923943;29;20051;-81
2022/06/27 16:38:55;;;;;;;4.40;1.15;;;23.70;95.80;;;;;;4930417;29;20051;-78
2022/06/27 16:41:21;;;;;;;2.42;1.20;;;23.40;96.00;;;;;;4943291;29;20027;-81
2022/06/27 16:43:55;;;;;;;2.47;1.42;;;23.10;96.40;;;;;;4943361;29;20031;-81
2022/06/27 16:46:21;;;;;;;2.65;1.48;;;22.70;97.80;;;;;;4942031;29;20039;-83
2022/06/27 16:48:46;;;;;;;2.90;1.55;;;22.50;99.60;;;;;;4943403;29;20031;-79
2022/06/27 16:51:12;;;;;;;4.65;1.65;;;22.20;99.90;;;;;;4910447;29;20213;-82
2022/06/27 16:53:42;;;;;;;2.35;1.67;;;21.90;99.90;;;;;;4925995;29;20047;-83
2022/06/27 16:56:08;;;;;;;3.25;1.90;;;21.60;99.90;;;;;;4943345;29;20083;-81
2022/06/27 16:58:35;;;;;;;2.72;1.65;;;21.30;99.90;;;;;;4943255;29;20032;-82
2022/06/27 17:01:01;;;;;;;2.88;1.65;;;21.10;99.90;;;;;;4925454;29;20341;-81
2022/06/27 17:03:28;;;;;;;3.63;1.85;;;21.00;99.90;;;;;;4943093;29;20047;-83
2022/06/27 17:05:53;;;;;;;3.78;2.00;;;20.90;99.90;;;;;;4943445;29;20310;-82
2022/06/27 17:08:20;;;;;;;4.85;2.20;;;20.70;99.90;;;;;;4925791;29;20039;-83
2022/06/27 17:10:46;;;;;;;3.38;2.15;;;20.70;99.90;;;;;;4937303;29;20036;-81
2022/06/27 17:13:15;;;;;;;3.88;2.60;;;20.60;99.90;;;;;;4910200;29;20103;-81
2022/06/27 17:15:43;;;;;;;4.15;2.30;;;20.50;99.90;;;;;;4925920;29;20376;-83
2022/06/27 17:18:09;;;;;;;4.80;2.83;;;20.50;99.90;;;;;;4943724;29;20302;-83
2022/06/27 17:20:36;;;;;;;7.22;2.65;;;20.60;99.90;;;;;;4945965;29;20031;-83
2022/06/27 17:23:06;;;;;;;4.35;2.88;;;20.70;99.90;;;;;;4947388;29;20071;-81
2022/06/27 17:25:33;;;;;;;4.45;3.22;;;21.00;99.90;;;;;;4937487;29;20254;-82
2022/06/27 17:27:59;;;;;;;5.82;3.05;;;21.30;99.90;;;;;;4952718;29;20020;-80
2022/06/27 17:30:25;;;;;;;9.40;4.13;;;21.70;99.90;;;;;;4938092;29;20024;-80
2022/06/27 17:32:50;;;;;;;8.82;3.70;;;21.60;99.90;;;;;;4934807;29;20023;-80
2022/06/27 17:35:16;;;;;;;7.80;3.60;;;21.60;99.90;;;;;;4926276;29;20036;-80
2022/06/27 17:37:42;;;;;;;6.70;2.92;;;21.60;99.90;;;;;;4945130;29;20205;-79
2022/06/27 17:40:09;;;;;;;5.38;3.00;;;21.60;99.90;;;;;;4946782;29;20027;-81
2022/06/27 17:42:36;;;;;;;4.10;2.53;;;21.90;99.90;;;;;;4946343;29;20179;-81
2022/06/27 17:45:03;;;;;;;3.75;2.30;;;22.10;99.90;;;;;;4928913;29;20116;-81
2022/06/27 17:47:29;;;;;;;3.22;1.95;;;22.20;99.90;;;;;;4946311;29;20047;-79
2022/06/27 17:49:54;;;;;;;4.47;2.10;;;22.20;99.90;;;;;;4929475;29;20321;-79
2022/06/27 17:52:20;;;;;;;3.75;2.22;;;22.20;99.90;;;;;;4928787;29;20023;-80
2022/06/27 17:54:46;;;;;;;2.80;2.15;;;22.30;99.90;;;;;;4946435;29;20081;-81
2022/06/27 17:57:12;;;;;;;4.07;2.22;;;22.30;99.90;;;;;;4929590;29;20035;-81
2022/06/27 17:59:37;;;;;;;5.45;2.53;;;22.20;99.90;;;;;;4946018;29;20024;-80
2022/06/27 18:02:03;;;;;;;4.50;2.60;;;22.10;99.90;;;;;;4945066;29;20062;-81
2022/06/27 18:04:29;;;;;;;4.90;2.90;;;21.90;99.90;;;;;;4945774;29;20031;-80
2022/06/27 18:06:55;;;;;;;7.18;2.90;;;21.80;99.90;;;;;;4945959;29;20031;-81
2022/06/27 18:09:21;;;;;;;4.90;2.53;;;21.60;99.90;;;;;;4945234;29;20034;-81
2022/06/27 18:11:48;;;;;;;4.32;2.60;;;21.50;99.90;;;;;;4947710;29;20031;-80